WEATHER DATA

YESTERDAY
Time Temp. Dewp. Hum. Wind dir Wind speed Wind gust Bar.
00:09 17.9 13.2 74 0 0 1021.2
00:18 17.6 13.3 76 0 0 1021
00:29 16.9 12.8 77 0 0 1021.2
00:39 16.1 12.3 78 0 0 1021
00:49 15.6 12 79 0 0 1021
00:59 15.5 12.1 80 0 0 1021
01:09 15.5 12.1 80 0 0 1021
01:19 15.4 12 80 0 0 1021
01:29 15.4 12.2 81 0 0 1021.2
01:40 15.4 12.2 81 0 0 1021
01:50 15.3 12.2 82 0 0 1021.2
01:59 15.2 12.3 83 0 0 1021.2
02:09 15.1 12.2 83 0 0 1021.2
02:20 15.1 12.4 84 0 0 1020.9
02:30 15.1 12.4 84 0 0 1020.9
02:40 15.1 12.6 85 0 0 1020.8
02:50 15.1 12.6 85 0 0 1020.8
03:00 15.1 12.6 85 0 0 1020.8
03:10 15 12.5 85 0 0 1020.8
03:20 14.9 12.4 85 0 0 1020.8
03:31 14.6 12.1 85 0 0 1020.8
03:41 14.4 11.9 85 0 0 1020.8
03:50 14.2 11.7 85 0 0 1020.9
04:00 13.9 11.4 85 0 0 1021
04:11 13.6 11.1 85 0 0 1021
04:21 13.3 10.8 85 0 0 1020.9
04:31 13 10.5 85 0 0 1020.9
04:42 12.9 10.6 86 0 0 1020.9
04:51 12.8 10.5 86 0 0 1021
05:01 12.7 10.4 86 0 0 1021.2
05:11 12.6 10.3 86 0 0 1021.3
05:22 12.5 10.4 87 0 0 1021.3
05:32 12.4 10.3 87 0 0 1021.4
05:41 12.4 10.3 87 0 0 1021.4
05:52 12.4 10.3 87 0 0 1021.4
06:02 12.4 10.3 87 0 0 1021.6
06:12 12.5 10.6 88 0 0 1021.6
06:22 12.5 10.4 87 0 0 1021.6
06:33 12.6 10.7 88 0 0 1021.7
06:42 12.6 10.7 88 0 0 1021.7
06:52 12.8 10.9 88 0 0 1021.8
07:03 13 11.1 88 0 0 1021.9
07:13 13.2 11.3 88 0 0 1021.9
07:23 13.5 11.6 88 0 0 1022
07:33 13.9 11.9 88 0 0 1022
07:43 14.3 12.3 88 0 0 1022.1
07:53 14.6 12.5 87 0 0 1022.1
08:03 14.9 12.8 87 0 0 1022.1
08:13 15.2 12.9 86 0 0 1022.1
08:24 15.5 13.2 86 0 0 1022.2
08:33 15.7 13.2 85 0 0 1022.3
08:43 16.2 13.5 84 0 0 1022.3
08:54 16.7 13.6 82 0 0 1022.5
09:04 18.2 14.9 81 0 0 1022.5
09:14 20.2 16.4 79 0 0 1022.6
09:24 21.8 17.6 77 0 0 1022.6
09:34 22.9 17.4 71 0 0 1022.6
09:44 23.4 17.8 71 0 0 1022.7
09:54 24.1 18.1 69 0 0 1022.7
10:05 24.4 18.6 70 0 0 1022.7
10:15 24.8 18.7 69 0 0 1022.7
10:24 24.5 18.4 69 0 0 1022.7
10:34 24.9 19.1 70 0 0 1022.7
10:45 25.5 18.4 65 0 0 1022.6
10:55 25.2 18.2 65 0 0 1022.6
11:15 23.2 17.4 70 0 0 1022.7
11:25 22.4 17.3 73 0 0 1022.7
11:35 24.1 19 73 0 0 1022.8
11:45 25 19.2 70 0 0 1022.8
11:56 24.6 19 71 0 0 1022.8
12:05 24.3 18.5 70 0 0 1022.8
12:15 24.9 18.8 69 0 0 1022.8
12:25 26.3 20.2 69 0 0 1022.8
12:36 25.7 18.4 64 0 0 1022.8
12:46 24.7 17.7 65 0 0 1022.8
12:55 25.2 18.2 65 0 0 1022.8
13:06 23.6 17.4 68 0 0 1022.7
13:16 24.8 18.7 69 0 0 1022.7
13:26 24.3 17.1 64 0 0 1022.6
13:47 26.1 19.5 67 0 0 1022.6
13:56 26.2 18.6 63 0 0 1022.5
14:06 26 18.9 65 0 0 1022.5
14:17 26.2 18.9 64 0 0 1022.6
14:27 26 18.9 65 0 0 1022.5
14:37 26.8 19.2 63 0 0 1022.5
14:47 27.1 18.9 61 0 0 1022.5
14:57 26.6 18.2 60 0 0 1022.5
15:07 25.6 17.5 61 0 0 1022.5
15:17 25 17.7 64 0 0 1022.6
15:28 25.6 18.5 65 0 0 1022.5
15:38 26.1 18 61 0 0 1022.5
15:47 26.4 18.5 62 0 0 1022.6
15:57 27.2 18.8 60 0 0 1022.6
16:18 27.1 17.6 56 0 0 1022.3
16:28 27.7 18.4 57 0 0 1022.2
16:38 27.5 17.9 56 0 0 1022.2
16:48 27.2 16.5 52 0 0 1022.2
16:58 27.1 17 54 0 0 1022.1
17:08 27.1 17 54 0 0 1022
17:19 27 16.3 52 0 0 1022
17:29 26.8 15.8 51 0 0 1022
17:38 26.8 15.5 50 0 0 1022
17:48 27 16 51 0 0 1022
17:59 27.1 15.8 50 0 0 1022
18:09 27 14.4 46 0 0 1022
18:19 27.1 14.5 46 0 0 1021.9
18:29 27.2 14.9 47 0 0 1021.8
18:39 26.7 14.1 46 0 0 1021.9
18:49 26.9 14.3 46 0 0 1021.8
18:59 26.2 14.7 49 0 0 1021.8
19:20 25.9 15 51 0 0 1021.9
19:29 25.9 15 51 0 0 1022
19:40 25.5 15.2 53 0 0 1022
19:50 24.8 14.3 52 0 0 1022
20:00 24 13.8 53 0 0 1022.1
20:10 22.7 12.9 54 0 0 1022.2
20:20 21.6 12.5 56 0 0 1022.2
20:30 20.8 12 57 0 0 1022.3
20:40 20.1 11.8 59 0 0 1022.3
20:51 19.7 11.7 60 0 0 1022.3
21:01 19.3 12.1 63 0 0 1022.5
21:11 18.8 11.6 63 0 0 1022.5
21:20 18.4 11.5 64 0 0 1022.5
21:31 18.2 11.3 64 0 0 1022.6
21:41 18.2 11 63 0 0 1022.6
21:51 18.2 11 63 0 0 1022.7
22:01 18.1 11.2 64 0 0 1022.7
22:11 17.9 10.8 63 0 0 1022.8
22:21 17.9 11 64 0 0 1022.9
22:31 17.6 11.2 66 0 0 1023
22:42 17.4 10.8 65 0 0 1023
22:52 17.6 11 65 0 0 1023
23:02 17.6 11 65 0 0 1023.2
23:11 17.8 10.9 64 0 0 1023.2
23:22 17.8 10.9 64 0 0 1023.3
23:32 17.7 10.8 64 0 0 1023.3
23:42 17.5 10.9 65 0 0 1023.4
23:53 17.3 10.9 66 0 0 1023.7

DAY STATISTIC

2022-07-05
TEMPERATURE
AVERAGE
20.0
HIGH
27.7
16:28
LOW
12.4
05:32
PRESSURE
AVERAGE
1022.1
HIGH
1023.7
23:53
LOW
1020.8
02:40
DEWPOINT
AVERAGE
14.2
HIGH
20.2
12:25
LOW
10.3
05:11
HUMIDITY
AVERAGE
71
HIGH
88
06:12
LOW
46
18:09
WIND SPEED
AVERAGE
0.0
HIGH
0.0
13:36
WIND GUST
AVERAGE
0.0
HIGH
0.0
13:36
WIND DIRECTION
PREVAILING
%
TEMPERATURE (°C)
LOW
12.4
HIGH
27.7
AVERAGE
20.0
PRESSURE (hpa)
LOW
1020.8
HIGH
1023.7
AVERAGE
1022.1
DEVICE